sensor_id;sensor_type;location;lat;lon;timestamp;pressure;altitude;pressure_sealevel;temperature;humidity
9969;BME280;5025;48.890;9.278;2023-11-19T00:02:07;98736.81;;;7.85;100.00
9969;BME280;5025;48.890;9.278;2023-11-19T00:04:33;98745.75;;;7.85;100.00
9969;BME280;5025;48.890;9.278;2023-11-19T00:06:59;98730.41;;;7.86;100.00
9969;BME280;5025;48.890;9.278;2023-11-19T00:09:28;98725.03;;;7.86;100.00
9969;BME280;5025;48.890;9.278;2023-11-19T00:11:54;98712.22;;;7.88;100.00
9969;BME280;5025;48.890;9.278;2023-11-19T00:14:19;98719.25;;;7.89;100.00
9969;BME280;5025;48.890;9.278;2023-11-19T00:16:44;98699.41;;;7.90;100.00
9969;BME280;5025;48.890;9.278;2023-11-19T00:19:09;98696.91;;;7.88;100.00
9969;BME280;5025;48.890;9.278;2023-11-19T00:21:35;98694.44;;;7.87;100.00
9969;BME280;5025;48.890;9.278;2023-11-19T00:24:01;98686.97;;;7.89;100.00
9969;BME280;5025;48.890;9.278;2023-11-19T00:26:26;98694.00;;;7.90;100.00
9969;BME280;5025;48.890;9.278;2023-11-19T00:28:52;98685.31;;;7.88;100.00
9969;BME280;5025;48.890;9.278;2023-11-19T00:31:18;98694.63;;;7.92;100.00
9969;BME280;5025;48.890;9.278;2023-11-19T00:33:43;98686.56;;;7.92;100.00
9969;BME280;5025;48.890;9.278;2023-11-19T00:36:09;98681.78;;;7.94;100.00
9969;BME280;5025;48.890;9.278;2023-11-19T00:38:34;98691.50;;;7.95;100.00
9969;BME280;5025;48.890;9.278;2023-11-19T00:40:59;98682.59;;;7.95;100.00
9969;BME280;5025;48.890;9.278;2023-11-19T00:43:24;98693.13;;;7.96;100.00
9969;BME280;5025;48.890;9.278;2023-11-19T00:45:51;98694.78;;;7.97;100.00
9969;BME280;5025;48.890;9.278;2023-11-19T00:48:16;98691.06;;;7.98;100.00
9969;BME280;5025;48.890;9.278;2023-11-19T00:50:42;98694.38;;;8.00;100.00
9969;BME280;5025;48.890;9.278;2023-11-19T00:53:09;98688.78;;;8.02;100.00
9969;BME280;5025;48.890;9.278;2023-11-19T00:55:35;98683.38;;;8.02;100.00
9969;BME280;5025;48.890;9.278;2023-11-19T00:58:00;98680.28;;;8.05;100.00
9969;BME280;5025;48.890;9.278;2023-11-19T01:00:25;98673.66;;;8.07;100.00
9969;BME280;5025;48.890;9.278;2023-11-19T01:02:52;98668.06;;;8.09;100.00
9969;BME280;5025;48.890;9.278;2023-11-19T01:05:17;98680.22;;;8.12;100.00
9969;BME280;5025;48.890;9.278;2023-11-19T01:07:46;98674.41;;;8.15;100.00
9969;BME280;5025;48.890;9.278;2023-11-19T01:10:12;98673.16;;;8.17;100.00
9969;BME280;5025;48.890;9.278;2023-11-19T01:12:37;98668.59;;;8.18;100.00
9969;BME280;5025;48.890;9.278;2023-11-19T01:15:04;98664.88;;;8.19;100.00
9969;BME280;5025;48.890;9.278;2023-11-19T01:17:29;98669.84;;;8.22;100.00
9969;BME280;5025;48.890;9.278;2023-11-19T01:19:56;98658.03;;;8.23;100.00
9969;BME280;5025;48.890;9.278;2023-11-19T01:22:21;98654.72;;;8.28;100.00
9969;BME280;5025;48.890;9.278;2023-11-19T01:24:47;98658.22;;;8.28;100.00
9969;BME280;5025;48.890;9.278;2023-11-19T01:27:12;98647.44;;;8.28;100.00
9969;BME280;5025;48.890;9.278;2023-11-19T01:29:37;98644.09;;;8.33;100.00
9969;BME280;5025;48.890;9.278;2023-11-19T01:32:03;98650.31;;;8.33;100.00
9969;BME280;5025;48.890;9.278;2023-11-19T01:34:29;98650.31;;;8.33;100.00
9969;BME280;5025;48.890;9.278;2023-11-19T01:36:54;98648.25;;;8.35;100.00
9969;BME280;5025;48.890;9.278;2023-11-19T01:39:19;98653.63;;;8.35;100.00
9969;BME280;5025;48.890;9.278;2023-11-19T01:41:46;98640.16;;;8.35;100.00
9969;BME280;5025;48.890;9.278;2023-11-19T01:44:11;98641.78;;;8.36;100.00
9969;BME280;5025;48.890;9.278;2023-11-19T01:46:44;98638.66;;;8.39;100.00
9969;BME280;5025;48.890;9.278;2023-11-19T01:49:10;98646.31;;;8.42;100.00
9969;BME280;5025;48.890;9.278;2023-11-19T01:51:37;98641.59;;;8.45;100.00
9969;BME280;5025;48.890;9.278;2023-11-19T01:54:03;98644.28;;;8.45;100.00
9969;BME280;5025;48.890;9.278;2023-11-19T01:56:28;98633.69;;;8.43;100.00
9969;BME280;5025;48.890;9.278;2023-11-19T01:58:56;98637.59;;;8.47;100.00
9969;BME280;5025;48.890;9.278;2023-11-19T02:01:22;98646.53;;;8.48;100.00
9969;BME280;5025;48.890;9.278;2023-11-19T02:03:47;98648.16;;;8.49;100.00
9969;BME280;5025;48.890;9.278;2023-11-19T02:06:12;98644.44;;;8.50;100.00
9969;BME280;5025;48.890;9.278;2023-11-19T02:08:38;98644.00;;;8.53;100.00
9969;BME280;5025;48.890;9.278;2023-11-19T02:11:04;98643.19;;;8.52;100.00
9969;BME280;5025;48.890;9.278;2023-11-19T02:13:32;98644.00;;;8.53;100.00
9969;BME280;5025;48.890;9.278;2023-11-19T02:15:57;98634.88;;;8.54;100.00
9969;BME280;5025;48.890;9.278;2023-11-19T02:18:24;98632.19;;;8.54;100.00
9969;BME280;5025;48.890;9.278;2023-11-19T02:20:59;98637.34;;;8.55;100.00
9969;BME280;5025;48.890;9.278;2023-11-19T02:23:26;98626.59;;;8.55;100.00
9969;BME280;5025;48.890;9.278;2023-11-19T02:26:11;98623.25;;;8.60;100.00
9969;BME280;5025;48.890;9.278;2023-11-19T02:28:39;98624.88;;;8.61;100.00
9969;BME280;5025;48.890;9.278;2023-11-19T02:31:05;98621.16;;;8.62;100.00
9969;BME280;5025;48.890;9.278;2023-11-19T02:33:35;98622.81;;;8.63;100.00
9969;BME280;5025;48.890;9.278;2023-11-19T02:36:00;98628.78;;;8.65;100.00
9969;BME280;5025;48.890;9.278;2023-11-19T02:38:26;98621.06;;;8.69;100.00
9969;BME280;5025;48.890;9.278;2023-11-19T02:40:51;98628.94;;;8.70;100.00
9969;BME280;5025;48.890;9.278;2023-11-19T02:43:16;98634.94;;;8.72;100.00
9969;BME280;5025;48.890;9.278;2023-11-19T02:45:43;98634.72;;;8.74;100.00
9969;BME280;5025;48.890;9.278;2023-11-19T02:48:10;98629.34;;;8.74;100.00
9969;BME280;5025;48.890;9.278;2023-11-19T02:50:36;98622.06;;;8.74;100.00
9969;BME280;5025;48.890;9.278;2023-11-19T02:53:02;98630.16;;;8.74;100.00
9969;BME280;5025;48.890;9.278;2023-11-19T02:55:27;98619.38;;;8.74;100.00
9969;BME280;5025;48.890;9.278;2023-11-19T02:57:55;98624.78;;;8.74;100.00
9969;BME280;5025;48.890;9.278;2023-11-19T03:00:24;98621.03;;;8.75;100.00
9969;BME280;5025;48.890;9.278;2023-11-19T03:02:50;98629.94;;;8.76;100.00
9969;BME280;5025;48.890;9.278;2023-11-19T03:05:30;98623.09;;;8.73;100.00
9969;BME280;5025;48.890;9.278;2023-11-19T03:07:55;98644.22;;;8.76;100.00
9969;BME280;5025;48.890;9.278;2023-11-19T03:10:21;98627.47;;;8.74;100.00
9969;BME280;5025;48.890;9.278;2023-11-19T03:12:47;98629.13;;;8.75;100.00
9969;BME280;5025;48.890;9.278;2023-11-19T03:15:12;98625.81;;;8.73;100.00
9969;BME280;5025;48.890;9.278;2023-11-19T03:17:41;98627.47;;;8.74;100.00
9969;BME280;5025;48.890;9.278;2023-11-19T03:20:09;98636.13;;;8.76;100.00
9969;BME280;5025;48.890;9.278;2023-11-19T03:22:42;98628.06;;;8.76;100.00
9969;BME280;5025;48.890;9.278;2023-11-19T03:25:08;98633.00;;;8.79;100.00
9969;BME280;5025;48.890;9.278;2023-11-19T03:27:37;98637.13;;;8.82;100.00
9969;BME280;5025;48.890;9.278;2023-11-19T03:30:07;98625.53;;;8.82;100.00
9969;BME280;5025;48.890;9.278;2023-11-19T03:32:34;98613.72;;;8.83;100.00
9969;BME280;5025;48.890;9.278;2023-11-19T03:35:01;98604.59;;;8.84;100.00
9969;BME280;5025;48.890;9.278;2023-11-19T03:37:26;98614.34;;;8.85;100.00
9969;BME280;5025;48.890;9.278;2023-11-19T03:39:53;98609.97;;;8.84;100.00
9969;BME280;5025;48.890;9.278;2023-11-19T03:42:19;98596.06;;;8.87;100.00
9969;BME280;5025;48.890;9.278;2023-11-19T03:44:46;98598.53;;;8.88;100.00
9969;BME280;5025;48.890;9.278;2023-11-19T03:47:11;98598.31;;;8.90;100.00
9969;BME280;5025;48.890;9.278;2023-11-19T03:49:36;98593.97;;;8.89;100.00
9969;BME280;5025;48.890;9.278;2023-11-19T03:52:01;98583.19;;;8.89;100.00
9969;BME280;5025;48.890;9.278;2023-11-19T03:54:27;98590.25;;;8.90;100.00
9969;BME280;5025;48.890;9.278;2023-11-19T03:56:53;98588.97;;;8.92;100.00
9969;BME280;5025;48.890;9.278;2023-11-19T03:59:18;98581.72;;;8.93;100.00
9969;BME280;5025;48.890;9.278;2023-11-19T04:01:45;98569.06;;;8.93;100.00
9969;BME280;5025;48.890;9.278;2023-11-19T04:04:11;98577.75;;;8.95;100.00
9969;BME280;5025;48.890;9.278;2023-11-19T04:06:36;98577.75;;;8.95;100.00
9969;BME280;5025;48.890;9.278;2023-11-19T04:09:01;98570.28;;;8.97;100.00
9969;BME280;5025;48.890;9.278;2023-11-19T04:11:27;98578.13;;;8.99;100.00
9969;BME280;5025;48.890;9.278;2023-11-19T04:13:52;98581.41;;;9.01;100.00
9969;BME280;5025;48.890;9.278;2023-11-19T04:16:18;98579.94;;;9.05;100.00
9969;BME280;5025;48.890;9.278;2023-11-19T04:18:43;98577.22;;;9.05;100.00
9969;BME280;5025;48.890;9.278;2023-11-19T04:21:08;98576.44;;;9.05;100.00
9969;BME280;5025;48.890;9.278;2023-11-19T04:23:34;98580.53;;;9.07;100.00
9969;BME280;5025;48.890;9.278;2023-11-19T04:26:02;98574.09;;;9.08;100.00
9969;BME280;5025;48.890;9.278;2023-11-19T04:28:27;98572.00;;;9.10;100.00
9969;BME280;5025;48.890;9.278;2023-11-19T04:30:53;98576.56;;;9.10;100.00
9969;BME280;5025;48.890;9.278;2023-11-19T04:33:18;98578.00;;;9.12;100.00
9969;BME280;5025;48.890;9.278;2023-11-19T04:35:43;98572.97;;;9.16;100.00
9969;BME280;5025;48.890;9.278;2023-11-19T04:38:08;98561.38;;;9.15;100.00
9969;BME280;5025;48.890;9.278;2023-11-19T04:40:34;98563.00;;;9.17;100.00
9969;BME280;5025;48.890;9.278;2023-11-19T04:42:59;98574.00;;;9.15;100.00
9969;BME280;5025;48.890;9.278;2023-11-19T04:45:24;98577.56;;;9.15;100.00
9969;BME280;5025;48.890;9.278;2023-11-19T04:47:49;98568.63;;;9.15;100.00
9969;BME280;5025;48.890;9.278;2023-11-19T04:50:15;98576.72;;;9.15;100.00
9969;BME280;5025;48.890;9.278;2023-11-19T04:52:40;98579.63;;;9.13;100.00
9969;BME280;5025;48.890;9.278;2023-11-19T04:55:07;98580.47;;;9.14;100.00
9969;BME280;5025;48.890;9.278;2023-11-19T04:57:32;98580.47;;;9.14;100.00
9969;BME280;5025;48.890;9.278;2023-11-19T04:59:58;98580.91;;;9.11;100.00
9969;BME280;5025;48.890;9.278;2023-11-19T05:02:23;98582.53;;;9.12;100.00
9969;BME280;5025;48.890;9.278;2023-11-19T05:04:48;98575.31;;;9.12;100.00
9969;BME280;5025;48.890;9.278;2023-11-19T05:07:14;98568.03;;;9.13;100.00
9969;BME280;5025;48.890;9.278;2023-11-19T05:09:39;98571.09;;;9.17;100.00
9969;BME280;5025;48.890;9.278;2023-11-19T05:12:05;98573.34;;;9.20;100.00
9969;BME280;5025;48.890;9.278;2023-11-19T05:14:33;98566.91;;;9.21;100.00
9969;BME280;5025;48.890;9.278;2023-11-19T05:16:59;98575.34;;;9.24;100.00
9969;BME280;5025;48.890;9.278;2023-11-19T05:19:24;98579.72;;;9.25;100.00
9969;BME280;5025;48.890;9.278;2023-11-19T05:21:49;98585.69;;;9.27;100.00
9969;BME280;5025;48.890;9.278;2023-11-19T05:24:17;98587.56;;;9.27;100.00
9969;BME280;5025;48.890;9.278;2023-11-19T05:26:42;98587.13;;;9.30;100.00
9969;BME280;5025;48.890;9.278;2023-11-19T05:29:07;98585.59;;;9.34;100.00
9969;BME280;5025;48.890;9.278;2023-11-19T05:31:33;98578.13;;;9.36;100.00
9969;BME280;5025;48.890;9.278;2023-11-19T05:33:58;98585.16;;;9.37;100.00
9969;BME280;5025;48.890;9.278;2023-11-19T05:36:23;98582.84;;;9.41;100.00
9969;BME280;5025;48.890;9.278;2023-11-19T05:38:48;98584.25;;;9.43;100.00
9969;BME280;5025;48.890;9.278;2023-11-19T05:41:14;98580.28;;;9.46;100.00
9969;BME280;5025;48.890;9.278;2023-11-19T05:43:39;98568.81;;;9.50;100.00
9969;BME280;5025;48.890;9.278;2023-11-19T05:46:05;98561.94;;;9.55;100.00
9969;BME280;5025;48.890;9.278;2023-11-19T05:48:31;98558.16;;;9.56;100.00
9969;BME280;5025;48.890;9.278;2023-11-19T05:50:57;98557.94;;;9.57;100.00
9969;BME280;5025;48.890;9.278;2023-11-19T05:53:22;98559.38;;;9.60;100.00
9969;BME280;5025;48.890;9.278;2023-11-19T05:55:48;98568.03;;;9.62;100.00
9969;BME280;5025;48.890;9.278;2023-11-19T05:58:23;98571.34;;;9.64;100.00
9969;BME280;5025;48.890;9.278;2023-11-19T06:00:50;98568.66;;;9.64;100.00
9969;BME280;5025;48.890;9.278;2023-11-19T06:03:16;98572.53;;;9.68;100.00
9969;BME280;5025;48.890;9.278;2023-11-19T06:05:44;98566.66;;;9.71;100.00
9969;BME280;5025;48.890;9.278;2023-11-19T06:08:09;98574.31;;;9.74;100.00
9969;BME280;5025;48.890;9.278;2023-11-19T06:10:35;98583.00;;;9.76;100.00
9969;BME280;5025;48.890;9.278;2023-11-19T06:13:00;98583.13;;;9.81;100.00
9969;BME280;5025;48.890;9.278;2023-11-19T06:15:29;98585.59;;;9.83;100.00
9969;BME280;5025;48.890;9.278;2023-11-19T06:17:55;98584.34;;;9.85;100.00
9969;BME280;5025;48.890;9.278;2023-11-19T06:20:20;98597.38;;;9.89;100.00
9969;BME280;5025;48.890;9.278;2023-11-19T06:22:46;98593.59;;;9.90;100.00
9969;BME280;5025;48.890;9.278;2023-11-19T06:25:12;98592.31;;;9.92;100.00
9969;BME280;5025;48.890;9.278;2023-11-19T06:27:40;98591.88;;;9.95;100.00
9969;BME280;5025;48.890;9.278;2023-11-19T06:30:05;98580.28;;;9.95;100.00
9969;BME280;5025;48.890;9.278;2023-11-19T06:32:31;98577.56;;;9.95;100.00
9969;BME280;5025;48.890;9.278;2023-11-19T06:34:57;98581.66;;;9.97;100.00
9969;BME280;5025;48.890;9.278;2023-11-19T06:37:22;98581.66;;;9.97;100.00
9969;BME280;5025;48.890;9.278;2023-11-19T06:39:48;98590.13;;;10.01;100.00
9969;BME280;5025;48.890;9.278;2023-11-19T06:42:14;98594.69;;;10.00;100.00
9969;BME280;5025;48.890;9.278;2023-11-19T06:44:39;98599.28;;;10.00;100.00
9969;BME280;5025;48.890;9.278;2023-11-19T06:47:04;98599.28;;;10.00;100.00
9969;BME280;5025;48.890;9.278;2023-11-19T06:49:30;98591.75;;;10.02;100.00
9969;BME280;5025;48.890;9.278;2023-11-19T06:51:55;98589.69;;;10.04;100.00
9969;BME280;5025;48.890;9.278;2023-11-19T06:54:20;98591.31;;;10.05;100.00
9969;BME280;5025;48.890;9.278;2023-11-19T06:56:46;98586.53;;;10.07;100.00
9969;BME280;5025;48.890;9.278;2023-11-19T06:59:11;98597.91;;;10.09;100.00
9969;BME280;5025;48.890;9.278;2023-11-19T07:01:36;98596.84;;;10.10;100.00
9969;BME280;5025;48.890;9.278;2023-11-19T07:04:03;98581.72;;;10.09;100.00
9969;BME280;5025;48.890;9.278;2023-11-19T07:06:34;98589.56;;;10.11;100.00
9969;BME280;5025;48.890;9.278;2023-11-19T07:09:00;98581.00;;;10.14;100.00
9969;BME280;5025;48.890;9.278;2023-11-19T07:11:34;98588.88;;;10.15;100.00
9969;BME280;5025;48.890;9.278;2023-11-19T07:14:00;98585.94;;;10.17;100.00
9969;BME280;5025;48.890;9.278;2023-11-19T07:16:25;98587.84;;;10.16;100.00
9969;BME280;5025;48.890;9.278;2023-11-19T07:18:50;98607.75;;;10.15;100.00
9969;BME280;5025;48.890;9.278;2023-11-19T07:21:16;98611.06;;;10.17;100.00
9969;BME280;5025;48.890;9.278;2023-11-19T07:23:41;98616.59;;;10.22;100.00
9969;BME280;5025;48.890;9.278;2023-11-19T07:26:06;98618.00;;;10.25;100.00
9969;BME280;5025;48.890;9.278;2023-11-19T07:28:33;98620.00;;;10.30;100.00
9969;BME280;5025;48.890;9.278;2023-11-19T07:30:58;98621.00;;;10.35;100.00
9969;BME280;5025;48.890;9.278;2023-11-19T07:33:24;98619.25;;;10.41;100.00
9969;BME280;5025;48.890;9.278;2023-11-19T07:35:50;98625.59;;;10.47;100.00
9969;BME280;5025;48.890;9.278;2023-11-19T07:38:16;98626.44;;;10.47;100.00
9969;BME280;5025;48.890;9.278;2023-11-19T07:40:41;98642.97;;;10.51;100.00
9969;BME280;5025;48.890;9.278;2023-11-19T07:43:06;98645.22;;;10.54;100.00
9969;BME280;5025;48.890;9.278;2023-11-19T07:45:32;98631.72;;;10.54;100.00
9969;BME280;5025;48.890;9.278;2023-11-19T07:47:57;98637.13;;;10.54;100.00
9969;BME280;5025;48.890;9.278;2023-11-19T07:50:23;98631.25;;;10.57;100.00
9969;BME280;5025;48.890;9.278;2023-11-19T07:52:48;98622.91;;;10.58;100.00
9969;BME280;5025;48.890;9.278;2023-11-19T07:55:13;98624.53;;;10.59;100.00
9969;BME280;5025;48.890;9.278;2023-11-19T07:57:38;98641.59;;;10.60;100.00
9969;BME280;5025;48.890;9.278;2023-11-19T08:00:04;98645.69;;;10.63;100.00
9969;BME280;5025;48.890;9.278;2023-11-19T08:02:30;98636.53;;;10.64;100.00
9969;BME280;5025;48.890;9.278;2023-11-19T08:04:55;98639.69;;;10.61;100.00
9969;BME280;5025;48.890;9.278;2023-11-19T08:07:21;98652.97;;;10.62;100.00
9969;BME280;5025;48.890;9.278;2023-11-19T08:09:47;98641.00;;;10.70;100.00
9969;BME280;5025;48.890;9.278;2023-11-19T08:12:12;98643.94;;;10.68;100.00
9969;BME280;5025;48.890;9.278;2023-11-19T08:14:40;98630.19;;;10.70;100.00
9969;BME280;5025;48.890;9.278;2023-11-19T08:17:06;98621.97;;;10.76;100.00
9969;BME280;5025;48.890;9.278;2023-11-19T08:19:31;98626.09;;;10.79;100.00
9969;BME280;5025;48.890;9.278;2023-11-19T08:21:56;98632.91;;;10.82;100.00
9969;BME280;5025;48.890;9.278;2023-11-19T08:24:22;98632.69;;;10.83;100.00
9969;BME280;5025;48.890;9.278;2023-11-19T08:26:47;98629.53;;;10.86;100.00
9969;BME280;5025;48.890;9.278;2023-11-19T08:29:13;98630.19;;;10.93;100.00
9969;BME280;5025;48.890;9.278;2023-11-19T08:31:38;98632.19;;;10.98;100.00
9969;BME280;5025;48.890;9.278;2023-11-19T08:34:03;98618.22;;;11.01;100.00
9969;BME280;5025;48.890;9.278;2023-11-19T08:36:29;98630.78;;;11.07;100.00
9969;BME280;5025;48.890;9.278;2023-11-19T08:38:56;98632.22;;;11.10;100.00
9969;BME280;5025;48.890;9.278;2023-11-19T08:41:22;98625.75;;;11.11;100.00
9969;BME280;5025;48.890;9.278;2023-11-19T08:43:47;98621.16;;;11.11;100.00
9969;BME280;5025;48.890;9.278;2023-11-19T08:46:12;98638.78;;;11.14;100.00
9969;BME280;5025;48.890;9.278;2023-11-19T08:48:38;98640.19;;;11.17;100.00
9969;BME280;5025;48.890;9.278;2023-11-19T08:51:03;98635.38;;;11.19;100.00
9969;BME280;5025;48.890;9.278;2023-11-19T08:53:29;98631.03;;;11.18;100.00
9969;BME280;5025;48.890;9.278;2023-11-19T08:55:55;98644.06;;;11.21;100.00
9969;BME280;5025;48.890;9.278;2023-11-19T08:58:20;98638.09;;;11.19;100.00
9969;BME280;5025;48.890;9.278;2023-11-19T09:00:45;98651.13;;;11.22;100.00
9969;BME280;5025;48.890;9.278;2023-11-19T09:03:10;98646.06;;;11.25;100.00
9969;BME280;5025;48.890;9.278;2023-11-19T09:05:36;98646.63;;;11.27;100.00
9969;BME280;5025;48.890;9.278;2023-11-19T09:08:02;98650.53;;;11.32;100.00
9969;BME280;5025;48.890;9.278;2023-11-19T09:10:27;98653.81;;;11.34;100.00
9969;BME280;5025;48.890;9.278;2023-11-19T09:12:52;98649.09;;;11.41;100.00
9969;BME280;5025;48.890;9.278;2023-11-19T09:15:17;98661.34;;;11.43;100.00
9969;BME280;5025;48.890;9.278;2023-11-19T09:17:43;98661.44;;;11.48;100.00
9969;BME280;5025;48.890;9.278;2023-11-19T09:20:08;98674.00;;;11.55;100.00
9969;BME280;5025;48.890;9.278;2023-11-19T09:22:37;98664.38;;;11.59;100.00
9969;BME280;5025;48.890;9.278;2023-11-19T09:25:02;98658.72;;;11.60;100.00
9969;BME280;5025;48.890;9.278;2023-11-19T09:27:27;98657.63;;;11.61;100.00
9969;BME280;5025;48.890;9.278;2023-11-19T09:29:53;98660.09;;;11.63;100.00
9969;BME280;5025;48.890;9.278;2023-11-19T09:32:22;98659.88;;;11.64;100.00
9969;BME280;5025;48.890;9.278;2023-11-19T09:34:47;98664.81;;;11.68;100.00
9969;BME280;5025;48.890;9.278;2023-11-19T09:37:13;98663.19;;;11.66;100.00
9969;BME280;5025;48.890;9.278;2023-11-19T09:39:38;98668.09;;;11.70;100.00
9969;BME280;5025;48.890;9.278;2023-11-19T09:42:03;98667.25;;;11.69;100.00
9969;BME280;5025;48.890;9.278;2023-11-19T09:44:29;98673.28;;;11.71;100.00
9969;BME280;5025;48.890;9.278;2023-11-19T09:46:55;98680.56;;;11.71;100.00
9969;BME280;5025;48.890;9.278;2023-11-19T09:49:26;98678.22;;;11.74;100.00
9969;BME280;5025;48.890;9.278;2023-11-19T09:51:51;98685.00;;;11.77;100.00
9969;BME280;5025;48.890;9.278;2023-11-19T09:54:17;98686.44;;;11.79;100.00
9969;BME280;5025;48.890;9.278;2023-11-19T09:56:42;98687.72;;;11.77;100.00
9969;BME280;5025;48.890;9.278;2023-11-19T09:59:08;98683.09;;;11.89;100.00
9969;BME280;5025;48.890;9.278;2023-11-19T10:01:37;98679.47;;;11.95;100.00
9969;BME280;5025;48.890;9.278;2023-11-19T10:04:03;98665.78;;;12.02;100.00
9969;BME280;5025;48.890;9.278;2023-11-19T10:06:28;98666.13;;;12.06;100.00
9969;BME280;5025;48.890;9.278;2023-11-19T10:08:54;98662.03;;;12.03;100.00
9969;BME280;5025;48.890;9.278;2023-11-19T10:11:20;98673.78;;;12.09;100.00
9969;BME280;5025;48.890;9.278;2023-11-19T10:13:45;98668.38;;;12.09;100.00
9969;BME280;5025;48.890;9.278;2023-11-19T10:16:13;98657.28;;;12.10;100.00
9969;BME280;5025;48.890;9.278;2023-11-19T10:18:48;98657.06;;;12.12;100.00
9969;BME280;5025;48.890;9.278;2023-11-19T10:21:17;98661.63;;;12.11;100.00
9969;BME280;5025;48.890;9.278;2023-11-19T10:23:55;98665.16;;;12.12;100.00
9969;BME280;5025;48.890;9.278;2023-11-19T10:26:22;98661.97;;;12.15;100.00
9969;BME280;5025;48.890;9.278;2023-11-19T10:28:48;98667.72;;;12.18;100.00
9969;BME280;5025;48.890;9.278;2023-11-19T10:31:14;98659.84;;;12.17;100.00
9969;BME280;5025;48.890;9.278;2023-11-19T10:33:40;98648.53;;;12.20;100.00
9969;BME280;5025;48.890;9.278;2023-11-19T10:36:06;98655.34;;;12.23;100.00
9969;BME280;5025;48.890;9.278;2023-11-19T10:38:31;98661.00;;;12.21;100.00
9969;BME280;5025;48.890;9.278;2023-11-19T10:40:57;98658.63;;;12.25;100.00
9969;BME280;5025;48.890;9.278;2023-11-19T10:43:23;98663.41;;;12.34;100.00
9969;BME280;5025;48.890;9.278;2023-11-19T10:45:48;98658.44;;;12.43;100.00
9969;BME280;5025;48.890;9.278;2023-11-19T10:48:14;98654.31;;;12.41;100.00
9969;BME280;5025;48.890;9.278;2023-11-19T10:50:41;98657.22;;;12.51;100.00
9969;BME280;5025;48.890;9.278;2023-11-19T10:53:08;98646.81;;;12.60;100.00
9969;BME280;5025;48.890;9.278;2023-11-19T10:55:35;98657.88;;;12.75;100.00
9969;BME280;5025;48.890;9.278;2023-11-19T10:58:04;98645.56;;;12.84;100.00
9969;BME280;5025;48.890;9.278;2023-11-19T11:03:20;98655.97;;;13.09;100.00
9969;BME280;5025;48.890;9.278;2023-11-19T11:05:50;98648.91;;;13.08;100.00
9969;BME280;5025;48.890;9.278;2023-11-19T11:08:17;98636.38;;;13.24;100.00
9969;BME280;5025;48.890;9.278;2023-11-19T11:10:44;98638.09;;;13.31;97.16
9969;BME280;5025;48.890;9.278;2023-11-19T11:13:11;98653.16;;;13.38;93.58
9969;BME280;5025;48.890;9.278;2023-11-19T11:15:38;98630.44;;;13.44;92.65
9969;BME280;5025;48.890;9.278;2023-11-19T11:18:06;98627.56;;;13.51;91.64
9969;BME280;5025;48.890;9.278;2023-11-19T11:20:32;98624.25;;;13.49;89.28
9969;BME280;5025;48.890;9.278;2023-11-19T11:23:32;98623.75;;;13.52;87.06
9969;BME280;5025;48.890;9.278;2023-11-19T11:26:27;98624.34;;;13.54;85.35
9969;BME280;5025;48.890;9.278;2023-11-19T11:29:16;98639.28;;;13.57;82.65
9969;BME280;5025;48.890;9.278;2023-11-19T11:32:00;98628.63;;;13.72;82.65
9969;BME280;5025;48.890;9.278;2023-11-19T11:34:41;98636.50;;;13.74;82.03
9969;BME280;5025;48.890;9.278;2023-11-19T11:39:49;98622.94;;;13.96;80.30
9969;BME280;5025;48.890;9.278;2023-11-19T11:42:30;98623.34;;;14.10;79.60
9969;BME280;5025;48.890;9.278;2023-11-19T11:45:08;98615.91;;;14.27;79.02
9969;BME280;5025;48.890;9.278;2023-11-19T11:50:15;98611.97;;;14.73;77.07
9969;BME280;5025;48.890;9.278;2023-11-19T11:55:52;98617.50;;;14.83;75.88
9969;BME280;5025;48.890;9.278;2023-11-19T11:58:20;98611.22;;;14.82;74.47
9969;BME280;5025;48.890;9.278;2023-11-19T12:00:47;98592.81;;;14.95;74.33
9969;BME280;5025;48.890;9.278;2023-11-19T12:03:12;98589.56;;;14.93;74.35
9969;BME280;5025;48.890;9.278;2023-11-19T12:05:42;98595.88;;;15.03;72.35
9969;BME280;5025;48.890;9.278;2023-11-19T12:08:10;98612.78;;;15.11;73.13
9969;BME280;5025;48.890;9.278;2023-11-19T12:10:43;98600.56;;;15.13;72.58
9969;BME280;5025;48.890;9.278;2023-11-19T12:13:09;98588.25;;;15.05;72.02
9969;BME280;5025;48.890;9.278;2023-11-19T12:18:19;98594.88;;;14.77;72.51
9969;BME280;5025;48.890;9.278;2023-11-19T12:20:45;98589.34;;;14.62;73.20
9969;BME280;5025;48.890;9.278;2023-11-19T12:23:10;98586.25;;;14.53;73.48
9969;BME280;5025;48.890;9.278;2023-11-19T12:25:36;98578.00;;;14.38;74.44
9969;BME280;5025;48.890;9.278;2023-11-19T12:28:01;98571.94;;;14.30;75.00
9969;BME280;5025;48.890;9.278;2023-11-19T12:30:29;98569.78;;;14.32;75.57
9969;BME280;5025;48.890;9.278;2023-11-19T12:32:55;98572.31;;;14.44;75.55
9969;BME280;5025;48.890;9.278;2023-11-19T12:35:20;98563.97;;;14.56;75.50
9969;BME280;5025;48.890;9.278;2023-11-19T12:37:46;98554.34;;;14.70;75.42
9969;BME280;5025;48.890;9.278;2023-11-19T12:40:16;98551.94;;;14.79;74.55
9969;BME280;5025;48.890;9.278;2023-11-19T12:42:54;98550.69;;;14.97;73.59
9969;BME280;5025;48.890;9.278;2023-11-19T12:45:20;98531.00;;;15.28;72.71
9969;BME280;5025;48.890;9.278;2023-11-19T12:47:47;98528.09;;;15.55;70.54
9969;BME280;5025;48.890;9.278;2023-11-19T12:50:14;98529.28;;;15.85;69.59
9969;BME280;5025;48.890;9.278;2023-11-19T12:52:39;98509.69;;;15.77;65.22
9969;BME280;5025;48.890;9.278;2023-11-19T12:55:23;98535.00;;;15.78;62.19
9969;BME280;5025;48.890;9.278;2023-11-19T12:57:49;98540.63;;;15.61;62.14
9969;BME280;5025;48.890;9.278;2023-11-19T13:00:25;98548.19;;;15.38;63.02
9969;BME280;5025;48.890;9.278;2023-11-19T13:02:55;98537.50;;;15.21;64.29
9969;BME280;5025;48.890;9.278;2023-11-19T13:05:28;98527.69;;;15.20;64.66
9969;BME280;5025;48.890;9.278;2023-11-19T13:08:04;98522.50;;;15.14;66.00
9969;BME280;5025;48.890;9.278;2023-11-19T13:10:30;98547.53;;;15.11;64.98
9969;BME280;5025;48.890;9.278;2023-11-19T13:15:29;98541.59;;;15.24;65.15
9969;BME280;5025;48.890;9.278;2023-11-19T13:17:54;98538.53;;;15.10;66.02
9969;BME280;5025;48.890;9.278;2023-11-19T13:20:19;98535.59;;;15.17;66.31
9969;BME280;5025;48.890;9.278;2023-11-19T13:23:02;98521.53;;;15.46;65.75
9969;BME280;5025;48.890;9.278;2023-11-19T13:25:28;98524.56;;;15.54;64.43
9969;BME280;5025;48.890;9.278;2023-11-19T13:27:55;98526.78;;;15.73;63.07
9969;BME280;5025;48.890;9.278;2023-11-19T13:30:21;98522.78;;;15.96;62.66
9969;BME280;5025;48.890;9.278;2023-11-19T13:32:50;98516.53;;;16.01;62.10